Manitou, Oklahoma
Current Conditions -  °F | °C
As of 4:53 AM on Wednesday 22 Oct 2014 (Local Time) from KFDR Reporting Station
Clear Clear  
Wind Chill: 58°   Ceiling: Unl
Heat Index: 58°   Visibility: 10mi
Dew Point: 50°   Wind: 6mph
Humidity: 75%   Direction: 190°S
Pressure: 30.05"   Gusts: NA
Location:  34.51°N, 98.98°W
Report Text: KFDR 220953Z AUTO 19005KT 10SM CLR 14/10 A3005 RMK AO2 SLP163 T01440100
Loading
Personal Weather Stations






























Interactive Weather Map
Tropical Storm Tracking
New forecast layout! Learn more

10-Day Weather Forecast

Advertisements
Track Severe Weather on mobile